Time;durP1;ratioP1;P1;durP2;ratioP2;P2;SDS_P1;SDS_P2;PMS_P1;PMS_P2;Temp;Humidity;BMP_temperature;BMP_pressure;BME280_temperature;BME280_humidity;BME280_pressure;Samples;Min_cycle;Max_cycle;Signal;HPM_P1;HPM_P2
2022/04/08 00:00:57;;;;;;;71.05;40.92;;;10.60;99.90;;;;;;5053187;28;20021;-59
2022/04/08 00:03:23;;;;;;;50.15;30.02;;;10.60;99.90;;;;;;5053406;28;20021;-59
2022/04/08 00:05:51;;;;;;;49.83;28.27;;;10.50;99.90;;;;;;5053111;28;20471;-58
2022/04/08 00:08:16;;;;;;;48.45;30.02;;;10.60;99.90;;;;;;5053348;28;20033;-58
2022/04/08 00:10:42;;;;;;;39.95;25.55;;;10.60;99.90;;;;;;5053487;28;20100;-59
2022/04/08 00:13:08;;;;;;;45.38;26.65;;;10.50;99.90;;;;;;5053383;28;20017;-60
2022/04/08 00:15:36;;;;;;;67.15;37.90;;;10.50;99.90;;;;;;5052661;28;20136;-59
2022/04/08 00:18:01;;;;;;;65.75;39.08;;;10.40;99.90;;;;;;5053208;28;20112;-58
2022/04/08 00:20:27;;;;;;;53.10;31.55;;;10.30;99.90;;;;;;5052995;28;20053;-60
2022/04/08 00:22:53;;;;;;;50.33;29.15;;;10.20;99.90;;;;;;5053064;28;20021;-58
2022/04/08 00:25:19;;;;;;;56.13;33.75;;;10.20;99.90;;;;;;5053125;28;20472;-57
2022/04/08 00:27:45;;;;;;;46.15;28.60;;;10.10;99.90;;;;;;5053004;28;20049;-58
2022/04/08 00:30:11;;;;;;;45.67;26.92;;;10.10;99.90;;;;;;5052995;28;20033;-59
2022/04/08 00:32:37;;;;;;;37.45;24.17;;;10.20;99.90;;;;;;5052946;28;20017;-59
2022/04/08 00:35:02;;;;;;;34.53;22.27;;;10.20;99.90;;;;;;5052981;28;20043;-60
2022/04/08 00:37:28;;;;;;;36.22;22.77;;;10.20;99.90;;;;;;5052936;28;20025;-58
2022/04/08 00:39:54;;;;;;;31.60;20.35;;;10.20;99.90;;;;;;5053169;28;20361;-59
2022/04/08 00:42:20;;;;;;;30.88;20.80;;;10.20;99.90;;;;;;5052975;28;20013;-58
2022/04/08 00:44:45;;;;;;;31.38;20.05;;;10.20;99.90;;;;;;5052913;28;20029;-59
2022/04/08 00:47:11;;;;;;;29.23;19.10;;;10.20;99.90;;;;;;5053108;28;20029;-60
2022/04/08 00:49:38;;;;;;;26.95;17.52;;;10.20;99.90;;;;;;5052959;28;20390;-59
2022/04/08 00:52:04;;;;;;;26.85;17.45;;;10.10;99.90;;;;;;5052732;28;20048;-59
2022/04/08 00:54:31;;;;;;;24.48;17.65;;;10.10;99.90;;;;;;5053085;28;20029;-59
2022/04/08 00:56:58;;;;;;;26.50;16.88;;;10.10;99.90;;;;;;5053196;28;20033;-59
2022/04/08 00:59:26;;;;;;;34.03;20.02;;;10.10;99.90;;;;;;5056352;28;20025;-58
2022/04/08 01:01:52;;;;;;;24.90;16.08;;;10.10;99.90;;;;;;5056804;28;20104;-59
2022/04/08 01:04:18;;;;;;;32.10;21.23;;;10.00;99.90;;;;;;5056642;28;20099;-57
2022/04/08 01:06:45;;;;;;;28.00;17.92;;;10.00;99.90;;;;;;5056475;28;20025;-57
2022/04/08 01:09:10;;;;;;;22.13;15.93;;;9.80;99.90;;;;;;5056757;28;20421;-58
2022/04/08 01:11:40;;;;;;;26.63;17.13;;;9.80;99.90;;;;;;5056553;28;20025;-59
2022/04/08 01:14:14;;;;;;;22.05;15.77;;;9.90;99.90;;;;;;5056262;28;20013;-60
2022/04/08 01:16:41;;;;;;;21.88;14.23;;;9.80;99.90;;;;;;5056474;28;20064;-60
2022/04/08 01:19:07;;;;;;;23.15;15.95;;;9.80;99.90;;;;;;5056340;28;20025;-59
2022/04/08 01:21:33;;;;;;;22.20;13.82;;;9.80;99.90;;;;;;5056080;28;20036;-59
2022/04/08 01:24:01;;;;;;;20.25;13.40;;;9.70;99.90;;;;;;5056182;28;20475;-60
2022/04/08 01:26:27;;;;;;;19.95;12.80;;;9.70;99.90;;;;;;5056143;28;20032;-59
2022/04/08 01:28:54;;;;;;;19.67;13.40;;;9.80;99.90;;;;;;5055981;28;20024;-58
2022/04/08 01:31:20;;;;;;;19.50;13.32;;;9.70;99.90;;;;;;5056030;28;20021;-58
2022/04/08 01:33:46;;;;;;;17.40;11.93;;;9.70;99.90;;;;;;5056325;28;20028;-59
2022/04/08 01:36:11;;;;;;;18.45;12.43;;;9.60;99.90;;;;;;5056523;28;20060;-58
2022/04/08 01:38:37;;;;;;;24.15;13.18;;;9.60;99.90;;;;;;5055853;28;20440;-59
2022/04/08 01:41:03;;;;;;;21.35;15.27;;;9.60;99.90;;;;;;5055950;28;20029;-59
2022/04/08 01:43:29;;;;;;;16.23;11.15;;;9.60;99.90;;;;;;5055708;28;20437;-59
2022/04/08 01:45:55;;;;;;;16.90;11.25;;;9.50;99.90;;;;;;5055649;28;20437;-58
2022/04/08 01:48:21;;;;;;;13.60;9.18;;;9.50;99.90;;;;;;5055783;28;20074;-56
2022/04/08 01:50:46;;;;;;;14.27;9.43;;;9.60;99.90;;;;;;5055681;28;20108;-59
2022/04/08 01:53:15;;;;;;;14.38;8.30;;;9.60;99.90;;;;;;5055561;28;20154;-60
2022/04/08 01:55:41;;;;;;;14.90;8.88;;;9.60;99.90;;;;;;5055775;28;20097;-59
2022/04/08 01:58:07;;;;;;;14.23;9.20;;;9.60;99.90;;;;;;5055742;28;20013;-59
2022/04/08 02:00:33;;;;;;;15.52;10.15;;;9.60;99.90;;;;;;5055406;28;20032;-59
2022/04/08 02:03:00;;;;;;;12.73;8.32;;;9.60;99.90;;;;;;5055588;28;20104;-59
2022/04/08 02:05:26;;;;;;;10.52;7.65;;;9.50;99.90;;;;;;5055525;28;20036;-59
2022/04/08 02:07:53;;;;;;;11.02;7.78;;;9.50;99.90;;;;;;5055488;28;20029;-58
2022/04/08 02:10:19;;;;;;;12.02;8.10;;;9.50;99.90;;;;;;5055098;28;20028;-58
2022/04/08 02:12:45;;;;;;;11.40;7.65;;;9.50;99.90;;;;;;5055465;28;20017;-57
2022/04/08 02:15:11;;;;;;;9.82;7.80;;;9.60;99.90;;;;;;5055139;28;20056;-60
2022/04/08 02:17:37;;;;;;;11.55;8.27;;;9.50;99.90;;;;;;5055361;28;20166;-58
2022/04/08 02:20:04;;;;;;;12.43;8.85;;;9.50;99.90;;;;;;5055262;28;20104;-60
2022/04/08 02:22:30;;;;;;;15.77;10.63;;;9.50;99.90;;;;;;5055124;28;20033;-59
2022/04/08 02:24:57;;;;;;;15.23;9.52;;;9.50;99.90;;;;;;5054999;28;20032;-59
2022/04/08 02:27:23;;;;;;;19.42;13.98;;;9.40;99.90;;;;;;5054931;28;20025;-59
2022/04/08 02:29:50;;;;;;;18.15;11.52;;;9.30;99.90;;;;;;5055264;28;20035;-59
2022/04/08 02:32:16;;;;;;;15.55;10.80;;;9.30;99.90;;;;;;5054843;28;20070;-58
2022/04/08 02:34:41;;;;;;;18.38;11.23;;;9.30;99.90;;;;;;5054870;28;20029;-58
2022/04/08 02:37:07;;;;;;;20.52;12.60;;;9.30;99.90;;;;;;5054764;28;20395;-60
2022/04/08 02:39:33;;;;;;;17.38;11.75;;;9.30;99.90;;;;;;5054755;28;20021;-57
2022/04/08 02:41:59;;;;;;;17.42;10.93;;;9.30;99.90;;;;;;5054715;28;20154;-59
2022/04/08 02:44:25;;;;;;;20.40;11.68;;;9.30;99.90;;;;;;5055027;28;20107;-57
2022/04/08 02:46:51;;;;;;;24.15;13.63;;;9.30;99.90;;;;;;5054574;28;20498;-60
2022/04/08 02:49:17;;;;;;;21.45;12.63;;;9.30;99.90;;;;;;5054686;28;20025;-59
2022/04/08 02:51:42;;;;;;;21.63;13.52;;;9.20;99.90;;;;;;5054594;28;20095;-57
2022/04/08 02:54:10;;;;;;;22.88;12.90;;;9.20;99.90;;;;;;5054708;28;20119;-58
2022/04/08 02:56:39;;;;;;;20.10;13.43;;;9.20;99.90;;;;;;5054205;28;20439;-59
2022/04/08 02:59:04;;;;;;;20.92;12.50;;;9.10;99.90;;;;;;5054366;28;20033;-59
2022/04/08 03:01:30;;;;;;;18.95;11.23;;;9.10;99.90;;;;;;5054559;28;20032;-59
2022/04/08 03:03:56;;;;;;;21.77;12.40;;;9.10;99.90;;;;;;5054472;28;20043;-59
2022/04/08 03:06:21;;;;;;;17.67;11.25;;;9.00;99.90;;;;;;5054284;28;20123;-59
2022/04/08 03:08:47;;;;;;;16.52;11.15;;;9.10;99.90;;;;;;5054225;28;20025;-59
2022/04/08 03:11:13;;;;;;;17.83;11.77;;;9.00;99.90;;;;;;5053906;28;20018;-58
2022/04/08 03:13:38;;;;;;;14.80;9.00;;;9.00;99.90;;;;;;5054258;28;20035;-58
2022/04/08 03:16:04;;;;;;;13.95;9.32;;;9.00;99.90;;;;;;5053702;28;20055;-58
2022/04/08 03:18:30;;;;;;;14.55;9.32;;;9.10;99.90;;;;;;5052729;28;20031;-60
2022/04/08 03:20:55;;;;;;;12.60;8.30;;;9.10;99.90;;;;;;5053395;28;20074;-60
2022/04/08 03:23:21;;;;;;;12.40;8.20;;;9.00;99.90;;;;;;5053757;28;20029;-58
2022/04/08 03:25:47;;;;;;;12.85;7.78;;;9.10;99.90;;;;;;5053730;28;20055;-59
2022/04/08 03:28:13;;;;;;;11.77;7.82;;;9.10;99.90;;;;;;5054166;28;20024;-60
2022/04/08 03:30:40;;;;;;;11.27;8.45;;;9.10;99.90;;;;;;5053902;28;20071;-59
2022/04/08 03:33:06;;;;;;;11.30;7.72;;;9.10;99.90;;;;;;5053723;28;20066;-59
2022/04/08 03:35:32;;;;;;;14.10;11.23;;;9.00;99.90;;;;;;5053888;28;20108;-59
2022/04/08 03:37:58;;;;;;;19.35;12.38;;;9.00;99.90;;;;;;5053510;28;20485;-61
2022/04/08 03:40:23;;;;;;;18.77;12.73;;;8.90;99.90;;;;;;5053973;28;20063;-60
2022/04/08 03:42:49;;;;;;;15.05;11.77;;;8.90;99.90;;;;;;5053554;28;20395;-59
2022/04/08 03:45:15;;;;;;;14.95;10.75;;;8.90;99.90;;;;;;5053613;28;20032;-59
2022/04/08 03:47:41;;;;;;;14.55;11.05;;;8.90;99.90;;;;;;5053550;28;20021;-59
2022/04/08 03:50:07;;;;;;;12.98;9.35;;;8.90;99.90;;;;;;5053733;28;20448;-59
2022/04/08 03:52:32;;;;;;;12.52;9.18;;;9.00;99.90;;;;;;5053388;28;20025;-59
2022/04/08 03:55:02;;;;;;;15.45;10.13;;;9.00;99.90;;;;;;5053346;28;20048;-60
2022/04/08 03:57:28;;;;;;;11.77;9.02;;;9.10;99.90;;;;;;5053295;28;20051;-58
2022/04/08 03:59:55;;;;;;;12.38;8.88;;;9.10;99.90;;;;;;5053369;28;20045;-59
2022/04/08 04:02:21;;;;;;;11.90;8.15;;;9.10;99.90;;;;;;5053325;28;20021;-59
2022/04/08 04:04:49;;;;;;;10.80;7.40;;;9.10;99.90;;;;;;5053221;28;20119;-60
2022/04/08 04:07:15;;;;;;;13.57;9.50;;;9.20;99.90;;;;;;5053322;28;20028;-59
2022/04/08 04:09:40;;;;;;;10.60;7.97;;;9.20;99.90;;;;;;5053188;28;20025;-60
2022/04/08 04:12:07;;;;;;;13.98;10.10;;;9.20;99.90;;;;;;5053174;28;20047;-59
2022/04/08 04:14:32;;;;;;;12.82;8.57;;;9.10;99.90;;;;;;5053034;28;20057;-60
2022/04/08 04:16:58;;;;;;;11.95;8.85;;;9.20;99.90;;;;;;5053009;28;20423;-60
2022/04/08 04:19:25;;;;;;;10.98;8.25;;;9.20;99.90;;;;;;5053010;28;20021;-59
2022/04/08 04:21:51;;;;;;;12.00;8.55;;;9.20;99.90;;;;;;5052927;28;20492;-59
2022/04/08 04:24:17;;;;;;;12.38;8.60;;;9.30;99.90;;;;;;5053294;28;20025;-58
2022/04/08 04:26:42;;;;;;;12.77;8.25;;;9.30;99.90;;;;;;5053143;28;20092;-59
2022/04/08 04:29:08;;;;;;;12.07;9.02;;;9.30;99.90;;;;;;5052904;28;20036;-57
2022/04/08 04:31:34;;;;;;;12.05;9.45;;;9.30;99.90;;;;;;5053919;28;20100;-59
2022/04/08 04:33:59;;;;;;;14.13;10.00;;;9.30;99.90;;;;;;5057172;28;20387;-60
2022/04/08 04:36:25;;;;;;;15.20;10.50;;;9.30;99.90;;;;;;5057037;28;20037;-60
2022/04/08 04:38:51;;;;;;;16.73;10.25;;;9.40;99.90;;;;;;5057065;28;20447;-59
2022/04/08 04:41:20;;;;;;;16.20;10.77;;;9.40;99.90;;;;;;5057013;28;20438;-59
2022/04/08 04:43:45;;;;;;;17.45;11.30;;;9.40;99.90;;;;;;5057190;28;20044;-59
2022/04/08 04:46:11;;;;;;;19.75;13.43;;;9.40;99.90;;;;;;5055623;28;20568;-59
2022/04/08 04:48:37;;;;;;;18.95;12.30;;;9.40;99.90;;;;;;5057007;28;20021;-59
2022/04/08 04:51:02;;;;;;;21.27;12.75;;;9.40;99.90;;;;;;5056777;28;20096;-60
2022/04/08 04:53:28;;;;;;;22.27;14.18;;;9.50;99.90;;;;;;5056857;28;20392;-59
2022/04/08 04:55:57;;;;;;;32.83;18.88;;;9.60;99.90;;;;;;5056658;28;20100;-60
2022/04/08 04:58:22;;;;;;;56.35;30.38;;;9.70;99.90;;;;;;5056743;28;20025;-59
2022/04/08 05:00:48;;;;;;;76.93;43.38;;;9.50;99.90;;;;;;5056691;28;20593;-59
2022/04/08 05:03:14;;;;;;;56.05;33.42;;;9.40;99.90;;;;;;5056221;28;20490;-59
2022/04/08 05:05:40;;;;;;;99.53;55.85;;;9.50;99.90;;;;;;5055811;28;20068;-59
2022/04/08 05:08:09;;;;;;;120.60;65.07;;;9.60;99.90;;;;;;5055697;28;20070;-59
2022/04/08 05:10:34;;;;;;;92.18;53.80;;;9.60;99.90;;;;;;5055381;28;20021;-59
2022/04/08 05:13:00;;;;;;;74.03;42.40;;;9.70;99.90;;;;;;5055945;28;20021;-59
2022/04/08 05:15:27;;;;;;;61.55;35.67;;;9.90;99.90;;;;;;5053377;28;20045;-58
2022/04/08 05:17:53;;;;;;;152.38;79.97;;;10.00;99.90;;;;;;5054173;28;20017;-59
2022/04/08 05:20:19;;;;;;;149.00;79.50;;;10.10;99.90;;;;;;5054389;28;20100;-59
2022/04/08 05:22:45;;;;;;;129.63;74.90;;;10.10;99.90;;;;;;5054483;28;20116;-59
2022/04/08 05:25:11;;;;;;;118.13;68.05;;;10.20;99.90;;;;;;5055013;28;20104;-59
2022/04/08 05:27:41;;;;;;;84.95;47.85;;;10.20;99.90;;;;;;5054389;28;20032;-58
2022/04/08 05:30:13;;;;;;;47.45;27.98;;;10.30;99.90;;;;;;5054186;28;20013;-60
2022/04/08 05:32:39;;;;;;;45.67;27.00;;;10.30;99.90;;;;;;5055001;28;20414;-60
2022/04/08 05:35:06;;;;;;;36.65;21.73;;;10.30;99.90;;;;;;5055552;28;20032;-59
2022/04/08 05:37:37;;;;;;;34.53;22.05;;;10.30;99.90;;;;;;5055190;28;20024;-59
2022/04/08 05:40:03;;;;;;;34.15;20.55;;;10.40;99.90;;;;;;5055590;28;20480;-58
2022/04/08 05:42:29;;;;;;;30.88;19.27;;;10.70;99.90;;;;;;5054932;28;20025;-60
2022/04/08 05:44:54;;;;;;;29.95;18.73;;;10.80;99.90;;;;;;5054901;28;20372;-60
2022/04/08 05:47:20;;;;;;;27.63;18.45;;;10.90;99.90;;;;;;5055658;28;20087;-59
2022/04/08 05:49:49;;;;;;;34.35;20.40;;;11.00;99.90;;;;;;5055386;28;20021;-60
2022/04/08 05:52:14;;;;;;;62.42;35.53;;;11.20;99.90;;;;;;5055184;28;20383;-58
2022/04/08 05:54:40;;;;;;;50.47;37.15;;;11.40;99.90;;;;;;5055259;28;20101;-58
2022/04/08 05:57:06;;;;;;;89.78;52.65;;;11.70;99.90;;;;;;5051643;28;20372;-59
2022/04/08 05:59:33;;;;;;;118.63;69.13;;;12.60;99.90;;;;;;5041842;28;20032;-59
2022/04/08 06:01:58;;;;;;;120.82;70.30;;;14.20;94.70;;;;;;5051930;28;20032;-57
2022/04/08 06:04:24;;;;;;;107.07;63.08;;;15.40;86.80;;;;;;5047784;28;20029;-59
2022/04/08 06:06:50;;;;;;;117.55;69.03;;;17.30;76.40;;;;;;5048488;28;20021;-60
2022/04/08 06:09:16;;;;;;;150.10;84.75;;;18.80;69.20;;;;;;5048887;28;20068;-57
2022/04/08 06:11:44;;;;;;;153.88;88.53;;;19.70;63.20;;;;;;5053945;28;20048;-59
2022/04/08 06:14:09;;;;;;;145.65;86.07;;;20.90;59.40;;;;;;5054506;28;20032;-60
2022/04/08 06:16:35;;;;;;;129.82;78.95;;;21.70;57.50;;;;;;5053490;28;20041;-57
2022/04/08 06:19:01;;;;;;;96.47;58.72;;;22.20;55.50;;;;;;5043936;28;20375;-59
2022/04/08 06:21:26;;;;;;;72.55;46.40;;;22.70;53.70;;;;;;5046005;28;20028;-58
2022/04/08 06:23:52;;;;;;;51.50;36.75;;;23.10;51.80;;;;;;5051347;28;20089;-59
2022/04/08 06:26:18;;;;;;;41.95;28.83;;;24.00;50.60;;;;;;5037553;28;20467;-57
2022/04/08 06:28:43;;;;;;;24.13;16.98;;;25.20;47.60;;;;;;5033453;28;20017;-54
2022/04/08 06:31:10;;;;;;;42.13;28.48;;;26.10;46.20;;;;;;5032854;28;20104;-60
2022/04/08 06:33:36;;;;;;;42.03;30.85;;;26.80;44.50;;;;;;5032682;28;20018;-58
2022/04/08 06:36:02;;;;;;;41.13;29.98;;;27.20;43.60;;;;;;5032429;28;20117;-58
2022/04/08 06:38:28;;;;;;;40.20;29.17;;;28.00;43.30;;;;;;5032682;28;20021;-60
2022/04/08 06:40:53;;;;;;;40.53;28.05;;;28.40;43.10;;;;;;5038282;28;20022;-60
2022/04/08 06:43:19;;;;;;;32.55;23.13;;;29.00;42.30;;;;;;5033612;28;20034;-62
2022/04/08 06:45:45;;;;;;;54.17;33.15;;;28.30;41.10;;;;;;5033530;28;20029;-60
2022/04/08 06:48:10;;;;;;;44.10;29.45;;;28.10;42.00;;;;;;5034572;28;20144;-59
2022/04/08 06:50:36;;;;;;;32.08;24.25;;;28.70;42.00;;;;;;5046066;28;20491;-59
2022/04/08 06:53:02;;;;;;;30.02;21.92;;;29.80;40.70;;;;;;5041253;28;20037;-60
2022/04/08 06:55:32;;;;;;;22.95;17.90;;;30.70;40.30;;;;;;5034802;28;20037;-60
2022/04/08 06:57:59;;;;;;;17.60;13.88;;;31.40;38.50;;;;;;5029025;28;20070;-58
2022/04/08 07:00:26;;;;;;;14.00;12.07;;;31.80;37.20;;;;;;5034029;28;20029;-59
2022/04/08 07:02:52;;;;;;;15.63;11.02;;;32.00;37.10;;;;;;5058723;28;20077;-58
2022/04/08 07:05:18;;;;;;;11.88;9.50;;;32.20;35.90;;;;;;5036770;28;20033;-59
2022/04/08 07:07:46;;;;;;;11.05;8.63;;;32.20;35.50;;;;;;5032293;28;20108;-58
2022/04/08 07:10:13;;;;;;;8.95;7.88;;;32.70;35.30;;;;;;5040302;28;20222;-61
2022/04/08 07:12:39;;;;;;;8.57;7.05;;;32.70;35.90;;;;;;5028025;28;20041;-62
2022/04/08 07:15:05;;;;;;;6.68;5.60;;;33.10;35.00;;;;;;5041505;28;20048;-61
2022/04/08 07:17:35;;;;;;;8.77;6.10;;;33.30;35.60;;;;;;5039927;28;20517;-62
2022/04/08 07:20:02;;;;;;;8.73;6.20;;;33.80;35.30;;;;;;5033087;28;20152;-61
2022/04/08 07:22:28;;;;;;;6.68;5.25;;;34.00;33.80;;;;;;5033976;28;20052;-60
2022/04/08 07:24:54;;;;;;;4.82;4.43;;;34.00;32.90;;;;;;5033902;28;20079;-63
2022/04/08 07:27:21;;;;;;;5.85;4.18;;;34.30;32.40;;;;;;5032947;28;20025;-63
2022/04/08 07:29:48;;;;;;;3.83;3.50;;;34.90;32.10;;;;;;5039162;28;20697;-62
2022/04/08 07:32:20;;;;;;;5.05;3.63;;;35.20;32.30;;;;;;5043586;28;20063;-61
2022/04/08 07:34:51;;;;;;;5.35;3.70;;;35.50;31.10;;;;;;5038093;28;20079;-63
2022/04/08 07:37:32;;;;;;;4.18;3.20;;;35.80;30.80;;;;;;5031351;28;20441;-59
2022/04/08 07:39:58;;;;;;;3.97;3.05;;;36.30;30.60;;;;;;5031726;28;20387;-59
2022/04/08 07:42:25;;;;;;;7.13;3.50;;;36.70;30.00;;;;;;5032987;28;20029;-58
2022/04/08 07:44:52;;;;;;;3.35;2.67;;;36.50;30.60;;;;;;5036945;28;20104;-61
2022/04/08 07:47:20;;;;;;;5.15;2.92;;;35.50;30.30;;;;;;5033821;28;20060;-61
2022/04/08 07:49:47;;;;;;;5.43;2.83;;;34.00;30.50;;;;;;5038117;28;20025;-62
2022/04/08 07:52:13;;;;;;;3.75;2.55;;;33.60;31.50;;;;;;5032860;28;20380;-58
2022/04/08 07:54:38;;;;;;;4.28;2.42;;;33.00;31.60;;;;;;5030734;28;20039;-60
2022/04/08 07:57:04;;;;;;;4.13;2.72;;;32.80;33.20;;;;;;5033318;28;20449;-65
2022/04/08 07:59:30;;;;;;;3.78;2.30;;;31.70;32.10;;;;;;5040072;28;20030;-63
2022/04/08 08:01:56;;;;;;;3.15;1.90;;;31.30;31.50;;;;;;5033266;28;20048;-71
2022/04/08 08:04:22;;;;;;;3.83;2.08;;;30.70;32.70;;;;;;5033396;28;20507;-68
2022/04/08 08:06:48;;;;;;;4.40;2.63;;;31.50;31.90;;;;;;5039390;28;20103;-67
2022/04/08 08:09:14;;;;;;;3.05;2.10;;;31.90;31.30;;;;;;5028623;28;20052;-63
2022/04/08 08:11:39;;;;;;;2.50;1.80;;;32.30;31.30;;;;;;5030403;28;20025;-68
2022/04/08 08:14:05;;;;;;;2.13;1.50;;;32.90;31.20;;;;;;5029034;28;20029;-66
2022/04/08 08:16:31;;;;;;;1.88;1.40;;;33.20;30.40;;;;;;5029246;28;20140;-69
2022/04/08 08:18:58;;;;;;;2.20;1.15;;;32.60;31.40;;;;;;5032657;28;20037;-69
2022/04/08 08:21:24;;;;;;;1.88;1.00;;;32.80;31.10;;;;;;5031309;28;20380;-68
2022/04/08 08:23:51;;;;;;;1.80;1.05;;;32.70;30.70;;;;;;5032314;28;20025;-67
2022/04/08 08:26:17;;;;;;;2.75;1.20;;;33.00;31.50;;;;;;5035994;28;20036;-70
2022/04/08 08:28:43;;;;;;;1.67;1.10;;;33.60;30.40;;;;;;5037641;28;20029;-66
2022/04/08 08:31:12;;;;;;;2.53;1.25;;;32.60;30.40;;;;;;5031184;28;20491;-65
2022/04/08 08:33:39;;;;;;;1.88;1.00;;;31.60;32.50;;;;;;5038996;28;20060;-68
2022/04/08 08:36:06;;;;;;;3.13;1.65;;;31.60;30.90;;;;;;5047932;28;20444;-64
2022/04/08 08:38:32;;;;;;;2.65;1.30;;;31.40;31.30;;;;;;5029968;28;20448;-66
2022/04/08 08:40:58;;;;;;;5.15;1.52;;;31.30;32.80;;;;;;5030245;28;20108;-68
2022/04/08 08:43:23;;;;;;;3.30;1.38;;;30.60;32.30;;;;;;5027979;28;20025;-68
2022/04/08 08:45:50;;;;;;;1.20;1.00;;;30.10;32.20;;;;;;5039888;28;20714;-63
2022/04/08 08:48:16;;;;;;;5.07;1.42;;;30.60;32.80;;;;;;5045833;28;20029;-64
2022/04/08 08:50:47;;;;;;;3.83;1.20;;;31.00;32.10;;;;;;5042969;28;20076;-63
2022/04/08 08:53:17;;;;;;;1.85;0.90;;;30.20;31.80;;;;;;5028528;28;20427;-65
2022/04/08 08:55:44;;;;;;;1.42;0.82;;;29.90;32.40;;;;;;5032690;28;20163;-66
2022/04/08 08:58:10;;;;;;;3.03;1.20;;;29.90;32.80;;;;;;5044822;28;20362;-66
2022/04/08 09:00:36;;;;;;;2.15;0.85;;;29.90;32.50;;;;;;5043681;28;20031;-59
2022/04/08 09:03:03;;;;;;;1.42;1.10;;;30.20;32.60;;;;;;5046777;28;20116;-61
2022/04/08 09:05:29;;;;;;;1.48;0.82;;;30.70;32.20;;;;;;5046086;28;20082;-58
2022/04/08 09:08:05;;;;;;;2.00;1.75;;;30.40;31.60;;;;;;5045360;28;20025;-60
2022/04/08 09:10:36;;;;;;;2.95;1.30;;;29.40;32.40;;;;;;5046782;28;20024;-60
2022/04/08 09:13:05;;;;;;;3.67;1.55;;;29.50;31.70;;;;;;5046771;28;20438;-60
2022/04/08 09:15:33;;;;;;;2.90;1.50;;;29.30;32.80;;;;;;5045441;28;20077;-61
2022/04/08 09:18:10;;;;;;;3.13;1.40;;;29.10;32.90;;;;;;5047019;28;20025;-62
2022/04/08 09:20:48;;;;;;;2.78;1.45;;;29.00;33.60;;;;;;5051552;28;20424;-67
2022/04/08 09:23:19;;;;;;;2.10;1.25;;;29.50;33.40;;;;;;5052073;28;20025;-54
2022/04/08 09:25:47;;;;;;;1.33;0.90;;;29.50;33.70;;;;;;5051124;28;20025;-59
2022/04/08 09:28:18;;;;;;;1.35;0.80;;;29.30;33.50;;;;;;5053381;28;20632;-60
2022/04/08 09:30:49;;;;;;;1.70;0.90;;;29.40;33.90;;;;;;5054444;28;20460;-60
2022/04/08 09:33:20;;;;;;;2.45;0.70;;;29.50;33.30;;;;;;5054526;28;20021;-62
2022/04/08 09:35:48;;;;;;;1.92;0.80;;;29.60;35.40;;;;;;5054885;28;20062;-59
2022/04/08 09:38:25;;;;;;;1.88;0.70;;;29.50;33.00;;;;;;5052544;28;20031;-62
2022/04/08 09:40:51;;;;;;;1.52;0.82;;;29.50;33.30;;;;;;5041043;28;20123;-62
2022/04/08 09:43:17;;;;;;;1.02;0.90;;;29.00;34.50;;;;;;5039372;28;20091;-59
2022/04/08 09:45:44;;;;;;;3.22;1.20;;;29.30;35.20;;;;;;5052757;28;20364;-62
2022/04/08 09:48:10;;;;;;;2.38;1.08;;;29.40;33.50;;;;;;5053854;28;20494;-59
2022/04/08 09:50:39;;;;;;;1.20;0.95;;;29.30;34.10;;;;;;5054388;28;20025;-54
2022/04/08 09:53:06;;;;;;;2.35;1.05;;;29.40;33.30;;;;;;5055036;28;20122;-61
2022/04/08 09:55:32;;;;;;;2.53;0.70;;;29.90;32.60;;;;;;5053705;28;20029;-63
2022/04/08 09:58:04;;;;;;;1.52;0.98;;;30.40;34.70;;;;;;5053994;28;20067;-57
2022/04/08 10:00:32;;;;;;;1.35;0.80;;;30.60;31.50;;;;;;5053097;28;20052;-58
2022/04/08 10:03:02;;;;;;;3.13;1.02;;;30.50;30.80;;;;;;5040969;28;20372;-55
2022/04/08 10:05:28;;;;;;;1.80;1.02;;;30.10;33.10;;;;;;5035311;28;20491;-58
2022/04/08 10:07:55;;;;;;;2.53;0.85;;;29.60;33.10;;;;;;5031888;28;20236;-61
2022/04/08 10:10:23;;;;;;;1.55;0.60;;;29.20;33.80;;;;;;5031333;28;20056;-58
2022/04/08 10:12:59;;;;;;;1.55;0.73;;;29.50;32.40;;;;;;5032912;28;20445;-63
2022/04/08 10:15:39;;;;;;;3.00;1.50;;;29.90;33.50;;;;;;5044495;28;20052;-58
2022/04/08 10:18:06;;;;;;;6.10;1.60;;;30.20;33.20;;;;;;5035294;28;20044;-55
2022/04/08 10:20:37;;;;;;;2.38;1.00;;;29.80;34.00;;;;;;5036884;28;20033;-61
2022/04/08 10:23:18;;;;;;;2.97;0.85;;;29.70;31.80;;;;;;5050962;28;20040;-56
2022/04/08 10:25:51;;;;;;;1.33;0.77;;;29.80;35.40;;;;;;5038530;28;20079;-57
2022/04/08 10:28:16;;;;;;;;;;;29.80;33.50;;;;;;5037705;28;20108;-64
2022/04/08 10:30:44;;;;;;;6.15;1.52;;;29.90;34.00;;;;;;5038550;28;20024;-61
2022/04/08 10:33:12;;;;;;;3.20;1.30;;;29.80;34.20;;;;;;5043893;28;20017;-58
2022/04/08 10:35:38;;;;;;;2.42;0.90;;;29.70;33.60;;;;;;5038315;28;20028;-61
2022/04/08 10:38:07;;;;;;;3.13;0.75;;;30.30;31.50;;;;;;5036995;28;20029;-58
2022/04/08 10:40:38;;;;;;;1.70;0.90;;;30.80;33.10;;;;;;5054137;28;20414;-63
2022/04/08 10:43:08;;;;;;;3.83;0.98;;;31.00;32.10;;;;;;5046118;28;20021;-57
2022/04/08 10:45:35;;;;;;;1.77;0.90;;;31.00;31.00;;;;;;5037251;28;20065;-64
2022/04/08 10:48:21;;;;;;;1.38;0.90;;;31.00;31.10;;;;;;5051239;28;20427;-63
2022/04/08 10:50:47;;;;;;;1.70;1.05;;;30.70;30.60;;;;;;5033713;28;20499;-62
2022/04/08 10:53:18;;;;;;;3.08;2.08;;;30.40;31.10;;;;;;5032937;28;20018;-63
2022/04/08 10:55:51;;;;;;;2.20;0.90;;;30.40;31.10;;;;;;5041135;28;20043;-60
2022/04/08 10:58:34;;;;;;;1.65;1.00;;;30.70;30.90;;;;;;5047151;28;20025;-62
2022/04/08 11:01:12;;;;;;;3.20;1.33;;;30.70;32.00;;;;;;5049157;28;20074;-61
2022/04/08 11:03:41;;;;;;;1.85;0.80;;;30.50;34.60;;;;;;5051458;28;20013;-61
2022/04/08 11:06:07;;;;;;;1.92;0.98;;;30.40;34.00;;;;;;5051140;28;20053;-59
2022/04/08 11:08:33;;;;;;;4.03;1.08;;;30.30;32.60;;;;;;5051813;28;20436;-64
2022/04/08 11:11:00;;;;;;;2.58;1.45;;;30.90;32.00;;;;;;5036844;28;20399;-63
2022/04/08 11:13:26;;;;;;;3.15;1.35;;;31.00;33.30;;;;;;5036271;28;20029;-62
2022/04/08 11:15:52;;;;;;;2.75;1.70;;;30.70;31.80;;;;;;5050479;28;20075;-62
2022/04/08 11:18:18;;;;;;;1.77;1.40;;;30.30;31.40;;;;;;5058791;28;20036;-61
2022/04/08 11:20:51;;;;;;;1.58;1.00;;;29.60;32.70;;;;;;5052346;28;20078;-63
2022/04/08 11:23:32;;;;;;;1.40;1.30;;;29.50;34.70;;;;;;5051441;28;20024;-68
2022/04/08 11:25:59;;;;;;;4.28;1.70;;;29.80;34.30;;;;;;5042725;28;20033;-66
2022/04/08 11:28:25;;;;;;;2.75;1.30;;;30.10;33.70;;;;;;5033030;28;20047;-65
2022/04/08 11:30:58;;;;;;;2.88;2.17;;;29.80;35.10;;;;;;5033320;28;20024;-66
2022/04/08 11:33:25;;;;;;;2.22;1.30;;;29.80;35.00;;;;;;5042377;28;20041;-66
2022/04/08 11:36:00;;;;;;;2.97;1.30;;;30.10;32.20;;;;;;5042649;28;20448;-66
2022/04/08 11:38:28;;;;;;;1.33;0.90;;;30.50;31.80;;;;;;5038599;28;20076;-66
2022/04/08 11:40:54;;;;;;;2.42;1.55;;;30.20;31.80;;;;;;5039934;28;20087;-67
2022/04/08 11:43:21;;;;;;;2.97;1.20;;;30.00;32.50;;;;;;5035606;28;20507;-66
2022/04/08 11:45:50;;;;;;;1.33;1.20;;;30.10;32.00;;;;;;5042915;28;20025;-67
2022/04/08 11:48:18;;;;;;;2.80;1.70;;;28.90;32.80;;;;;;5031400;28;20037;-68
2022/04/08 11:50:45;;;;;;;2.30;1.50;;;28.90;33.60;;;;;;5041570;28;20112;-67
2022/04/08 11:53:19;;;;;;;2.80;1.50;;;29.10;33.80;;;;;;5051224;28;20021;-69
2022/04/08 11:55:53;;;;;;;3.60;1.20;;;28.80;33.40;;;;;;5047326;28;20041;-68
2022/04/08 11:58:19;;;;;;;2.55;1.02;;;29.00;32.70;;;;;;5032474;28;20032;-66
2022/04/08 12:00:48;;;;;;;2.15;1.33;;;29.20;33.10;;;;;;5032799;28;20029;-66
2022/04/08 12:03:28;;;;;;;3.42;1.60;;;29.60;33.30;;;;;;5033195;28;20026;-65
2022/04/08 12:05:54;;;;;;;1.83;1.23;;;29.60;32.70;;;;;;5029470;28;20488;-68
2022/04/08 12:08:21;;;;;;;1.67;1.23;;;29.50;32.80;;;;;;5029233;28;20033;-65
2022/04/08 12:10:52;;;;;;;2.20;1.80;;;29.20;33.00;;;;;;5029310;28;20100;-68
2022/04/08 12:13:23;;;;;;;3.80;2.63;;;28.70;33.30;;;;;;5031071;28;20021;-67
2022/04/08 12:15:50;;;;;;;3.75;2.55;;;27.90;33.50;;;;;;5030644;28;20045;-66
2022/04/08 12:18:23;;;;;;;4.13;1.88;;;28.10;34.30;;;;;;5038767;28;20025;-68
2022/04/08 12:20:56;;;;;;;3.65;1.80;;;28.50;34.30;;;;;;5037102;28;20037;-63
2022/04/08 12:23:23;;;;;;;2.97;1.33;;;28.90;33.80;;;;;;5038459;28;20021;-67
2022/04/08 12:25:54;;;;;;;1.40;1.02;;;29.40;33.80;;;;;;5048865;28;20029;-70
2022/04/08 12:28:31;;;;;;;1.80;1.02;;;29.40;32.40;;;;;;5048851;28;20040;-67
2022/04/08 12:30:57;;;;;;;2.20;1.25;;;29.30;33.00;;;;;;5042885;28;20515;-67
2022/04/08 12:33:23;;;;;;;2.53;1.10;;;29.40;32.50;;;;;;5031751;28;20034;-66
2022/04/08 12:35:49;;;;;;;3.65;2.47;;;29.30;32.30;;;;;;5047942;28;20029;-67
2022/04/08 12:38:22;;;;;;;1.63;1.10;;;28.90;32.90;;;;;;5048795;28;20036;-66
2022/04/08 12:40:48;;;;;;;2.53;1.00;;;28.60;32.60;;;;;;5048206;28;20412;-67